Terminal Aerodrome Forecast
Issued by NWS

Home | Current Version | Previous Version | Text Only | Print | Product List | Glossary On
Versions: 1 2 3 4 5 6 7 8 9 10 11 12 13 14
000
FTUS43 KDTX 061733
TAFYIP
TAF
KYIP 061733Z 0618/0718 32007KT P6SM FEW060
     FM062300 16005KT P6SM SKC
     FM070600 VRB04KT P6SM BKN120
     FM071000 19007KT P6SM -SHRA SCT050 BKN100
     FM071500 26010KT P6SM SHRA BKN045 OVC060 PROB30 0715/0718 2SM
      TSRA OVC025CB=

USA.gov is the U.S. government's official web portal to all federal, state and local government web resources and services.